Time;durP1;ratioP1;P1;durP2;ratioP2;P2;SDS_P1;SDS_P2;PMS_P1;PMS_P2;Temp;Humidity;BMP_temperature;BMP_pressure;BME280_temperature;BME280_humidity;BME280_pressure;Samples;Min_cycle;Max_cycle;Signal;HPM_P1;HPM_P2
2021/08/25 00:00:04;;;;;;;15.45;13.85;;;13.90;99.90;;;;;;5047783;28;20198;-64
2021/08/25 00:02:31;;;;;;;16.77;13.60;;;13.90;99.90;;;;;;5053436;28;20587;-65
2021/08/25 00:04:58;;;;;;;14.23;12.82;;;13.90;99.90;;;;;;5057419;28;20233;-65
2021/08/25 00:07:27;;;;;;;14.48;13.07;;;13.80;99.90;;;;;;5047134;28;20201;-65
2021/08/25 00:09:54;;;;;;;14.25;13.00;;;13.90;99.90;;;;;;5047269;28;20568;-65
2021/08/25 00:12:22;;;;;;;17.63;15.82;;;13.80;99.90;;;;;;5047287;28;20611;-65
2021/08/25 00:14:49;;;;;;;15.30;13.73;;;13.60;99.90;;;;;;5046845;28;20220;-65
2021/08/25 00:17:18;;;;;;;16.15;14.63;;;13.40;99.90;;;;;;5047101;28;20280;-65
2021/08/25 00:19:46;;;;;;;15.75;14.15;;;13.30;99.90;;;;;;5047182;28;20225;-65
2021/08/25 00:22:13;;;;;;;14.18;12.85;;;13.30;99.90;;;;;;5046512;28;20210;-65
2021/08/25 00:24:40;;;;;;;15.05;13.55;;;13.20;99.90;;;;;;5047154;28;20225;-64
2021/08/25 00:27:07;;;;;;;15.50;14.00;;;13.20;99.90;;;;;;5046989;28;20208;-65
2021/08/25 00:29:34;;;;;;;16.08;14.55;;;13.30;99.90;;;;;;5047093;28;20213;-64
2021/08/25 00:32:01;;;;;;;14.70;13.30;;;13.40;99.90;;;;;;5045761;28;20259;-65
2021/08/25 00:34:29;;;;;;;14.57;13.18;;;13.50;99.90;;;;;;5046510;28;20287;-65
2021/08/25 00:36:56;;;;;;;16.02;14.45;;;13.30;99.90;;;;;;5047780;28;20197;-65
2021/08/25 00:39:23;;;;;;;15.75;14.32;;;13.20;99.90;;;;;;5046556;28;20212;-65
2021/08/25 00:41:50;;;;;;;16.30;14.65;;;13.30;99.90;;;;;;5046843;28;20296;-64
2021/08/25 00:44:17;;;;;;;14.18;12.82;;;13.40;99.90;;;;;;5047087;28;20200;-64
2021/08/25 00:46:44;;;;;;;14.82;13.43;;;13.40;99.90;;;;;;5046477;28;20209;-65
2021/08/25 00:49:12;;;;;;;15.13;13.65;;;13.40;99.90;;;;;;5046836;28;20611;-65
2021/08/25 00:51:43;;;;;;;14.68;13.18;;;13.40;99.90;;;;;;5047297;28;20197;-65
2021/08/25 00:54:10;;;;;;;15.10;13.13;;;13.40;99.90;;;;;;5057942;28;20208;-65
2021/08/25 00:56:37;;;;;;;13.60;12.25;;;13.30;99.90;;;;;;5066902;28;20296;-65
2021/08/25 00:59:05;;;;;;;16.42;14.65;;;13.20;99.90;;;;;;5066326;28;20224;-65
2021/08/25 01:01:40;;;;;;;14.57;13.18;;;13.10;99.90;;;;;;5055044;28;20773;-64
2021/08/25 01:04:13;;;;;;;14.18;12.68;;;13.20;99.90;;;;;;5047126;28;20272;-64
2021/08/25 01:06:42;;;;;;;13.98;12.57;;;13.30;99.90;;;;;;5046623;28;20288;-65
2021/08/25 01:09:09;;;;;;;16.27;12.57;;;13.10;99.90;;;;;;5045731;28;20212;-65
2021/08/25 01:11:36;;;;;;;15.20;13.80;;;13.00;99.90;;;;;;5046757;28;20216;-65
2021/08/25 01:14:03;;;;;;;16.45;14.85;;;12.80;99.90;;;;;;5046360;28;20293;-65
2021/08/25 01:16:30;;;;;;;16.65;14.95;;;12.60;99.90;;;;;;5046093;28;20209;-65
2021/08/25 01:18:59;;;;;;;17.30;15.50;;;12.50;99.90;;;;;;5045635;28;20208;-65
2021/08/25 01:21:27;;;;;;;14.63;13.18;;;12.40;99.90;;;;;;5046857;28;20790;-65
2021/08/25 01:23:55;;;;;;;17.35;15.55;;;12.30;99.90;;;;;;5046559;28;20734;-65
2021/08/25 01:26:23;;;;;;;15.93;14.32;;;12.30;99.90;;;;;;5046486;28;20233;-65
2021/08/25 01:28:53;;;;;;;16.08;14.55;;;12.40;99.90;;;;;;5049544;28;20288;-65
2021/08/25 01:31:22;;;;;;;15.98;14.23;;;12.40;99.90;;;;;;5045718;28;20624;-65
2021/08/25 01:33:49;;;;;;;17.25;15.38;;;12.30;99.90;;;;;;5048351;28;20224;-65
2021/08/25 01:36:18;;;;;;;16.00;14.50;;;12.30;99.90;;;;;;5050238;28;20297;-65
2021/08/25 01:38:49;;;;;;;16.92;13.88;;;12.40;99.90;;;;;;5049282;28;20205;-65
2021/08/25 01:41:17;;;;;;;16.05;14.45;;;12.60;99.90;;;;;;5049959;28;20209;-65
2021/08/25 01:43:44;;;;;;;13.80;12.40;;;12.80;99.90;;;;;;5049719;28;20212;-65
2021/08/25 01:46:21;;;;;;;13.65;12.35;;;13.00;99.90;;;;;;5050124;28;20238;-65
2021/08/25 01:48:49;;;;;;;13.45;12.23;;;13.00;99.90;;;;;;5049891;28;20209;-64
2021/08/25 01:51:15;;;;;;;13.60;12.23;;;13.10;99.90;;;;;;5049824;28;20297;-64
2021/08/25 01:53:42;;;;;;;12.98;11.63;;;13.20;99.90;;;;;;5049451;28;20284;-64
2021/08/25 01:56:09;;;;;;;13.23;12.02;;;13.30;99.90;;;;;;5049349;28;20682;-64
2021/08/25 01:58:36;;;;;;;14.52;13.18;;;13.30;99.90;;;;;;5048853;28;20233;-64
2021/08/25 02:01:03;;;;;;;13.30;12.00;;;13.20;99.90;;;;;;5051629;28;20209;-65
2021/08/25 02:03:31;;;;;;;13.10;11.80;;;13.30;99.90;;;;;;5069387;28;20565;-64
2021/08/25 02:05:58;;;;;;;13.85;11.70;;;13.30;99.90;;;;;;5053630;28;20887;-64
2021/08/25 02:08:25;;;;;;;15.13;13.23;;;13.20;99.90;;;;;;5049560;28;20229;-65
2021/08/25 02:10:51;;;;;;;14.23;12.77;;;13.10;99.90;;;;;;5049024;28;20555;-65
2021/08/25 02:13:18;;;;;;;14.23;12.73;;;13.10;99.90;;;;;;5049689;28;20212;-65
2021/08/25 02:15:45;;;;;;;14.23;12.90;;;12.90;99.90;;;;;;5049664;28;20205;-65
2021/08/25 02:18:12;;;;;;;15.52;13.68;;;12.60;99.90;;;;;;5048900;28;21377;-65
2021/08/25 02:20:40;;;;;;;15.93;14.32;;;12.40;99.90;;;;;;5049726;28;20220;-64
2021/08/25 02:23:07;;;;;;;16.50;14.75;;;12.20;99.90;;;;;;5049324;28;20202;-64
2021/08/25 02:25:34;;;;;;;16.77;15.00;;;12.20;99.90;;;;;;5048940;28;20332;-65
2021/08/25 02:28:01;;;;;;;17.70;15.75;;;12.10;99.90;;;;;;5048913;28;20284;-65
2021/08/25 02:30:27;;;;;;;18.20;15.23;;;11.90;99.90;;;;;;5048191;28;20574;-65
2021/08/25 02:32:54;;;;;;;18.58;16.02;;;11.90;99.90;;;;;;5048475;28;20232;-65
2021/08/25 02:35:21;;;;;;;16.15;14.50;;;11.90;99.90;;;;;;5053768;28;20212;-65
2021/08/25 02:37:49;;;;;;;16.67;15.07;;;11.80;99.90;;;;;;5068755;28;20212;-65
2021/08/25 02:40:16;;;;;;;17.38;15.48;;;11.90;99.90;;;;;;5069369;28;20230;-65
2021/08/25 02:42:43;;;;;;;18.20;16.40;;;11.80;99.90;;;;;;5069273;28;20200;-65
2021/08/25 02:45:11;;;;;;;17.65;15.77;;;11.70;99.90;;;;;;5067457;28;20312;-65
2021/08/25 02:47:38;;;;;;;26.02;17.77;;;11.80;99.90;;;;;;5049975;28;20289;-65
2021/08/25 02:50:07;;;;;;;20.13;17.63;;;11.90;99.90;;;;;;5048925;28;20201;-65
2021/08/25 02:52:34;;;;;;;19.33;17.27;;;11.80;99.90;;;;;;5054867;28;20209;-64
2021/08/25 02:55:02;;;;;;;20.45;15.77;;;11.70;99.90;;;;;;5068698;28;20643;-65
2021/08/25 02:57:29;;;;;;;19.30;17.40;;;11.60;99.90;;;;;;5068283;28;20213;-65
2021/08/25 02:59:55;;;;;;;18.40;16.40;;;11.60;99.90;;;;;;5061662;28;20814;-65
2021/08/25 03:02:22;;;;;;;18.13;16.27;;;11.50;99.90;;;;;;5048827;28;20213;-65
2021/08/25 03:04:49;;;;;;;18.80;16.80;;;11.40;99.90;;;;;;5048133;28;20213;-65
2021/08/25 03:07:16;;;;;;;20.95;16.42;;;11.50;99.90;;;;;;5047373;28;20287;-65
2021/08/25 03:09:43;;;;;;;21.13;17.38;;;11.40;99.90;;;;;;5049395;28;20591;-64
2021/08/25 03:12:11;;;;;;;18.30;16.45;;;11.50;99.90;;;;;;5048384;28;20705;-65
2021/08/25 03:14:38;;;;;;;19.40;16.95;;;11.50;99.90;;;;;;5047134;28;20205;-65
2021/08/25 03:17:08;;;;;;;18.08;16.08;;;11.50;99.90;;;;;;5048297;28;20208;-65
2021/08/25 03:19:34;;;;;;;24.30;17.67;;;11.40;99.90;;;;;;5048373;28;20832;-65
2021/08/25 03:22:01;;;;;;;19.35;17.05;;;11.40;99.90;;;;;;5047817;28;20725;-65
2021/08/25 03:24:28;;;;;;;20.50;17.95;;;11.50;99.90;;;;;;5048412;28;20205;-65
2021/08/25 03:26:55;;;;;;;20.27;18.17;;;11.60;99.90;;;;;;5048382;28;20328;-65
2021/08/25 03:29:23;;;;;;;20.02;17.90;;;11.50;99.90;;;;;;5047377;28;20240;-65
2021/08/25 03:31:50;;;;;;;19.70;17.60;;;11.50;99.90;;;;;;5047476;28;20205;-65
2021/08/25 03:34:17;;;;;;;22.38;18.73;;;11.50;99.90;;;;;;5048512;28;20213;-65
2021/08/25 03:36:44;;;;;;;19.92;17.83;;;11.50;99.90;;;;;;5047702;28;20205;-65
2021/08/25 03:39:11;;;;;;;19.80;17.38;;;11.50;99.90;;;;;;5047314;28;20296;-64
2021/08/25 03:41:37;;;;;;;21.17;17.80;;;11.50;99.90;;;;;;5047227;28;20205;-64
2021/08/25 03:44:05;;;;;;;19.63;17.52;;;11.40;99.90;;;;;;5048265;28;20241;-64
2021/08/25 03:46:33;;;;;;;21.40;19.10;;;11.40;99.90;;;;;;5047536;28;20268;-65
2021/08/25 03:49:00;;;;;;;21.80;18.88;;;11.40;99.90;;;;;;5047371;28;20325;-64
2021/08/25 03:51:27;;;;;;;20.83;18.25;;;11.50;99.90;;;;;;5047973;28;20202;-65
2021/08/25 03:53:53;;;;;;;19.63;17.52;;;11.50;99.90;;;;;;5047312;28;20206;-65
2021/08/25 03:56:20;;;;;;;20.38;18.13;;;11.60;99.90;;;;;;5046983;28;20202;-64
2021/08/25 03:58:47;;;;;;;20.77;17.83;;;11.60;99.90;;;;;;5047687;28;20232;-64
2021/08/25 04:01:14;;;;;;;20.30;18.30;;;11.50;99.90;;;;;;5048033;28;20238;-65
2021/08/25 04:03:42;;;;;;;19.65;17.50;;;11.70;99.90;;;;;;5047541;28;20209;-65
2021/08/25 04:06:09;;;;;;;23.23;18.05;;;11.60;99.90;;;;;;5047203;28;20327;-65
2021/08/25 04:08:36;;;;;;;19.52;17.45;;;11.60;99.90;;;;;;5046398;28;20675;-65
2021/08/25 04:11:03;;;;;;;20.92;18.05;;;11.50;99.90;;;;;;5047502;28;20297;-65
2021/08/25 04:13:29;;;;;;;21.00;18.70;;;11.60;99.90;;;;;;5046827;28;20202;-64
2021/08/25 04:15:56;;;;;;;20.23;18.08;;;11.40;99.90;;;;;;5046493;28;20205;-65
2021/08/25 04:18:25;;;;;;;24.77;19.58;;;11.40;99.90;;;;;;5047526;28;20537;-64
2021/08/25 04:20:53;;;;;;;21.98;18.75;;;11.40;99.90;;;;;;5047296;28;20297;-65
2021/08/25 04:23:20;;;;;;;21.05;18.48;;;11.60;99.90;;;;;;5047097;28;20256;-65
2021/08/25 04:25:47;;;;;;;20.70;18.58;;;11.50;99.90;;;;;;5046582;28;20900;-65
2021/08/25 04:28:14;;;;;;;20.80;18.70;;;11.50;99.90;;;;;;5047086;28;20210;-65
2021/08/25 04:30:41;;;;;;;18.48;16.33;;;11.50;99.90;;;;;;5047036;28;20213;-65
2021/08/25 04:33:08;;;;;;;19.02;17.00;;;11.70;99.90;;;;;;5047304;28;20241;-64
2021/08/25 04:35:35;;;;;;;19.55;17.60;;;11.80;99.90;;;;;;5047576;28;20213;-64
2021/08/25 04:38:03;;;;;;;20.38;16.80;;;11.80;99.90;;;;;;5045931;28;20232;-64
2021/08/25 04:40:30;;;;;;;20.98;18.88;;;11.90;99.90;;;;;;5047404;28;20308;-64
2021/08/25 04:42:57;;;;;;;25.15;16.67;;;12.00;99.90;;;;;;5047324;28;20237;-65
2021/08/25 04:45:24;;;;;;;17.13;15.43;;;12.00;99.90;;;;;;5046893;28;20319;-64
2021/08/25 04:47:51;;;;;;;18.73;16.13;;;12.00;99.90;;;;;;5046124;28;20204;-63
2021/08/25 04:50:18;;;;;;;18.75;17.00;;;12.00;99.90;;;;;;5046926;28;20263;-64
2021/08/25 04:52:45;;;;;;;17.90;16.15;;;12.10;99.90;;;;;;5047760;28;20295;-64
2021/08/25 04:55:13;;;;;;;19.25;17.38;;;12.30;99.90;;;;;;5046738;28;20761;-64
2021/08/25 04:57:40;;;;;;;17.15;15.15;;;12.30;99.90;;;;;;5046520;28;20216;-64
2021/08/25 05:00:08;;;;;;;17.58;15.52;;;12.40;99.90;;;;;;5046955;28;20304;-64
2021/08/25 05:02:35;;;;;;;16.17;14.57;;;12.40;99.90;;;;;;5046312;28;20288;-64
2021/08/25 05:05:02;;;;;;;16.17;14.68;;;12.30;99.90;;;;;;5046250;28;20194;-64
2021/08/25 05:07:29;;;;;;;20.02;15.20;;;12.50;99.90;;;;;;5046300;28;20303;-64
2021/08/25 05:09:55;;;;;;;16.02;14.43;;;12.60;99.90;;;;;;5050929;28;20308;-64
2021/08/25 05:12:23;;;;;;;16.27;14.73;;;12.60;99.90;;;;;;5051149;28;20193;-64
2021/08/25 05:14:50;;;;;;;15.32;13.82;;;12.70;99.90;;;;;;5049769;28;20230;-64
2021/08/25 05:17:17;;;;;;;16.13;14.52;;;12.90;99.90;;;;;;5049903;28;20209;-63
2021/08/25 05:19:44;;;;;;;14.70;13.23;;;13.30;99.90;;;;;;5050995;28;20308;-64
2021/08/25 05:22:11;;;;;;;14.15;12.85;;;13.80;99.90;;;;;;5050490;28;20633;-64
2021/08/25 05:24:38;;;;;;;15.93;13.10;;;14.30;99.90;;;;;;5050246;28;20202;-64
2021/08/25 05:27:05;;;;;;;15.13;13.65;;;14.70;99.90;;;;;;5069097;28;20251;-64
2021/08/25 05:29:33;;;;;;;16.08;14.57;;;15.10;99.90;;;;;;5051697;28;20749;-64
2021/08/25 05:32:00;;;;;;;13.50;12.20;;;15.60;99.90;;;;;;5044440;28;20293;-64
2021/08/25 05:34:27;;;;;;;14.93;13.57;;;15.90;99.90;;;;;;5049339;28;20208;-64
2021/08/25 05:36:54;;;;;;;15.43;13.87;;;16.50;99.90;;;;;;5049942;28;20382;-64
2021/08/25 05:39:21;;;;;;;16.33;14.73;;;17.00;99.90;;;;;;5050021;28;20558;-64
2021/08/25 05:41:48;;;;;;;17.07;15.40;;;17.60;99.90;;;;;;5049812;28;21243;-65
2021/08/25 05:44:15;;;;;;;16.00;14.60;;;18.20;99.90;;;;;;5050214;28;20459;-64
2021/08/25 05:46:43;;;;;;;15.33;13.93;;;18.90;99.90;;;;;;5049557;28;20498;-64
2021/08/25 05:49:10;;;;;;;16.60;14.83;;;19.50;98.90;;;;;;5049569;28;20462;-64
2021/08/25 05:51:36;;;;;;;15.90;14.47;;;20.60;97.90;;;;;;5049736;28;20463;-66
2021/08/25 05:54:03;;;;;;;17.17;15.53;;;21.60;95.40;;;;;;5050082;28;20448;-64
2021/08/25 05:56:30;;;;;;;15.60;13.97;;;21.90;94.00;;;;;;5049352;28;20944;-64
2021/08/25 05:58:57;;;;;;;17.53;15.87;;;21.50;93.80;;;;;;5050083;28;20498;-64
2021/08/25 06:01:24;;;;;;;16.40;14.90;;;21.00;94.40;;;;;;5069671;28;20462;-65
2021/08/25 06:03:52;;;;;;;16.90;15.27;;;20.70;94.50;;;;;;5069647;28;20434;-64
2021/08/25 06:06:19;;;;;;;16.60;15.10;;;20.20;95.40;;;;;;5069679;28;21023;-64
2021/08/25 06:08:46;;;;;;;16.17;14.33;;;19.50;96.20;;;;;;5056936;28;20547;-64
2021/08/25 06:11:13;;;;;;;16.33;14.73;;;19.00;97.40;;;;;;5042044;28;21266;-64
2021/08/25 06:13:40;;;;;;;15.77;14.40;;;18.50;98.40;;;;;;5042319;28;20456;-64
2021/08/25 06:16:08;;;;;;;15.37;13.87;;;18.60;98.90;;;;;;5053787;28;20462;-64
2021/08/25 06:18:35;;;;;;;15.13;13.83;;;19.40;97.90;;;;;;5065649;28;20472;-64
2021/08/25 06:21:03;;;;;;;15.27;13.97;;;19.70;97.00;;;;;;5048093;28;20464;-64
2021/08/25 06:23:30;;;;;;;17.00;15.37;;;19.80;96.60;;;;;;5051356;28;20464;-64
2021/08/25 06:25:57;;;;;;;16.77;14.83;;;19.40;96.70;;;;;;5050249;28;20882;-64
2021/08/25 06:28:24;;;;;;;16.13;14.73;;;19.20;97.40;;;;;;5048190;28;20971;-64
2021/08/25 06:30:50;;;;;;;16.60;15.03;;;18.60;98.00;;;;;;5047065;28;20843;-64
2021/08/25 06:33:17;;;;;;;15.63;14.13;;;18.10;99.20;;;;;;5049217;28;21026;-64
2021/08/25 06:35:44;;;;;;;12.97;11.87;;;18.20;99.40;;;;;;5048579;28;20557;-64
2021/08/25 06:38:12;;;;;;;10.57;9.67;;;19.10;98.40;;;;;;5047665;28;20456;-64
2021/08/25 06:40:39;;;;;;;12.83;11.63;;;20.30;96.20;;;;;;5045505;28;20516;-64
2021/08/25 06:43:06;;;;;;;12.57;11.33;;;21.80;93.80;;;;;;5044271;28;20523;-64
2021/08/25 06:45:33;;;;;;;9.80;9.00;;;22.60;93.10;;;;;;5048528;28;20561;-64
2021/08/25 06:48:00;;;;;;;10.93;10.03;;;22.20;91.60;;;;;;5047824;28;20504;-64
2021/08/25 06:50:27;;;;;;;11.73;10.73;;;21.90;91.90;;;;;;5054466;28;20487;-64
2021/08/25 06:52:54;;;;;;;12.90;11.70;;;21.70;92.90;;;;;;5044646;28;20463;-64
2021/08/25 06:55:22;;;;;;;12.60;11.47;;;21.30;93.20;;;;;;5048257;28;20460;-65
2021/08/25 06:57:49;;;;;;;12.67;11.53;;;21.90;93.40;;;;;;5047665;28;20456;-64
2021/08/25 07:00:18;;;;;;;13.30;12.20;;;21.80;93.30;;;;;;5051822;28;20592;-64
2021/08/25 07:02:45;;;;;;;12.17;11.13;;;21.40;93.40;;;;;;5036636;28;20852;-65
2021/08/25 07:05:12;;;;;;;13.80;12.60;;;21.30;93.40;;;;;;5047716;28;20995;-64
2021/08/25 07:07:39;;;;;;;12.10;11.10;;;21.00;94.30;;;;;;5052883;28;20487;-64
2021/08/25 07:10:07;;;;;;;10.87;9.87;;;20.80;93.60;;;;;;5049059;28;20957;-64
2021/08/25 07:12:35;;;;;;;12.50;11.30;;;20.70;93.60;;;;;;5048407;28;20476;-64
2021/08/25 07:15:02;;;;;;;11.53;10.50;;;20.40;94.10;;;;;;5046340;28;21168;-64
2021/08/25 07:17:29;;;;;;;10.17;9.10;;;19.90;95.60;;;;;;5054738;28;20492;-64
2021/08/25 07:19:56;;;;;;;7.70;7.00;;;19.60;95.40;;;;;;5051137;28;20555;-64
2021/08/25 07:22:22;;;;;;;8.57;6.63;;;19.60;93.90;;;;;;5049106;28;20463;-64
2021/08/25 07:24:49;;;;;;;7.17;6.57;;;20.90;92.30;;;;;;5057434;28;20502;-64
2021/08/25 07:27:16;;;;;;;8.37;7.70;;;21.10;92.10;;;;;;5053217;28;20491;-64
2021/08/25 07:29:44;;;;;;;7.77;7.03;;;21.00;91.90;;;;;;5059480;28;20539;-64
2021/08/25 07:32:12;;;;;;;7.03;6.43;;;20.80;91.10;;;;;;5051712;28;20562;-64
2021/08/25 07:34:39;;;;;;;5.83;5.43;;;21.10;91.60;;;;;;5051849;28;20530;-64
2021/08/25 07:37:06;;;;;;;6.23;5.73;;;21.90;90.80;;;;;;5046246;28;20448;-65
2021/08/25 07:39:33;;;;;;;6.10;5.70;;;22.60;90.20;;;;;;5047472;28;20547;-64
2021/08/25 07:41:59;;;;;;;5.70;5.30;;;23.30;85.80;;;;;;5052322;28;20546;-63
2021/08/25 07:44:26;;;;;;;7.63;7.03;;;23.10;86.50;;;;;;5046183;28;20429;-64
2021/08/25 07:46:55;;;;;;;6.13;5.70;;;23.90;84.40;;;;;;5045055;28;20483;-64
2021/08/25 07:49:23;;;;;;;6.03;5.47;;;24.20;84.30;;;;;;5045050;28;20433;-64
2021/08/25 07:51:50;;;;;;;6.80;6.30;;;23.80;82.60;;;;;;5046263;28;20438;-63
2021/08/25 07:54:17;;;;;;;6.50;6.00;;;23.50;84.20;;;;;;5045427;28;20459;-64
2021/08/25 07:56:44;;;;;;;6.47;5.87;;;22.80;83.90;;;;;;5046318;28;20445;-64
2021/08/25 07:59:11;;;;;;;6.10;5.60;;;22.20;86.40;;;;;;5049747;28;20482;-63
2021/08/25 08:01:38;;;;;;;6.20;5.77;;;21.20;90.00;;;;;;5049796;28;20566;-63
2021/08/25 08:04:06;;;;;;;6.40;5.90;;;20.30;90.80;;;;;;5047233;28;21095;-63
2021/08/25 08:06:33;;;;;;;6.70;6.10;;;19.60;92.00;;;;;;5046222;28;20571;-63
2021/08/25 08:09:00;;;;;;;7.00;6.40;;;19.50;92.60;;;;;;5048101;28;20460;-63
2021/08/25 08:11:26;;;;;;;6.53;5.93;;;18.90;92.40;;;;;;5044508;28;20460;-63
2021/08/25 08:13:53;;;;;;;6.57;6.07;;;18.80;93.40;;;;;;5046137;28;20460;-63
2021/08/25 08:16:21;;;;;;;7.27;6.53;;;18.70;93.80;;;;;;5049218;28;20875;-63
2021/08/25 08:19:01;;;;;;;7.00;6.40;;;18.70;93.60;;;;;;5046714;28;20459;-63
2021/08/25 08:21:29;;;;;;;6.30;5.73;;;18.70;94.80;;;;;;5046936;28;20491;-63
2021/08/25 08:23:57;;;;;;;6.57;6.07;;;18.70;94.80;;;;;;5046144;28;20450;-63
2021/08/25 08:26:27;;;;;;;7.30;6.80;;;18.60;94.60;;;;;;5046072;28;20960;-63
2021/08/25 08:28:54;;;;;;;7.03;6.03;;;18.70;94.90;;;;;;5046557;28;20498;-63
2021/08/25 08:31:21;;;;;;;7.40;6.47;;;18.70;94.20;;;;;;5045786;28;20459;-63
2021/08/25 08:33:48;;;;;;;7.50;6.20;;;18.60;94.00;;;;;;5047155;28;20460;-63
2021/08/25 08:36:15;;;;;;;8.25;6.25;;;18.50;95.30;;;;;;5041498;28;20470;-64
2021/08/25 08:38:43;;;;;;;7.90;7.10;;;18.60;95.20;;;;;;5046077;28;20205;-63
2021/08/25 08:41:10;;;;;;;7.00;6.30;;;18.60;95.50;;;;;;5042937;28;20499;-63
2021/08/25 08:43:42;;;;;;;6.80;6.30;;;18.80;95.70;;;;;;5047569;28;20463;-63
2021/08/25 08:46:13;;;;;;;7.20;6.60;;;18.80;95.20;;;;;;5050276;28;20468;-63
2021/08/25 08:48:40;;;;;;;7.50;6.80;;;18.50;95.60;;;;;;5050429;28;20431;-63
2021/08/25 08:51:07;;;;;;;7.43;6.70;;;18.40;95.40;;;;;;5052269;28;20949;-63
2021/08/25 08:53:34;;;;;;;7.63;7.03;;;18.50;95.30;;;;;;5051052;28;20463;-63
2021/08/25 08:56:02;;;;;;;7.07;6.43;;;18.40;95.20;;;;;;5049381;28;21099;-63
2021/08/25 08:58:29;;;;;;;7.47;6.87;;;18.40;95.80;;;;;;5050513;28;20464;-64
2021/08/25 09:00:55;;;;;;;7.20;6.50;;;18.50;96.20;;;;;;5051250;28;20465;-63
2021/08/25 09:03:26;;;;;;;6.97;6.37;;;18.60;95.80;;;;;;5051419;28;20464;-64
2021/08/25 09:05:55;;;;;;;7.03;6.37;;;18.70;95.70;;;;;;5051886;28;20554;-63
2021/08/25 09:08:27;;;;;;;8.23;7.53;;;18.60;96.20;;;;;;5070355;28;20495;-64
2021/08/25 09:11:05;;;;;;;7.70;7.00;;;18.70;97.10;;;;;;5056412;28;20464;-63
2021/08/25 09:13:41;;;;;;;7.00;6.37;;;19.10;95.90;;;;;;5050643;28;21245;-65
2021/08/25 09:16:08;;;;;;;7.60;6.90;;;19.30;96.30;;;;;;5050572;28;20529;-64
2021/08/25 09:18:36;;;;;;;6.70;6.10;;;20.00;94.60;;;;;;5051136;28;20455;-64
2021/08/25 09:21:03;;;;;;;6.33;5.80;;;20.50;94.60;;;;;;5051220;28;20953;-64
2021/08/25 09:23:31;;;;;;;6.60;5.77;;;21.60;91.30;;;;;;5056788;28;20493;-64
2021/08/25 09:26:00;;;;;;;5.73;5.23;;;22.00;90.60;;;;;;5038800;28;20460;-65
2021/08/25 09:28:34;;;;;;;5.93;5.40;;;22.20;90.10;;;;;;5031173;28;20493;-64
2021/08/25 09:31:03;;;;;;;5.10;4.70;;;22.80;87.30;;;;;;5030228;28;21006;-64
2021/08/25 09:33:33;;;;;;;5.37;4.97;;;22.80;86.90;;;;;;5030995;28;20477;-64
2021/08/25 09:36:02;;;;;;;5.87;5.37;;;23.70;84.50;;;;;;5030993;28;20457;-64
2021/08/25 09:38:31;;;;;;;5.47;5.03;;;23.50;84.00;;;;;;5036382;28;20864;-64
2021/08/25 09:41:01;;;;;;;6.00;5.50;;;23.60;82.40;;;;;;5051552;28;20478;-65
2021/08/25 09:43:38;;;;;;;4.97;4.57;;;24.40;82.30;;;;;;5050946;28;20566;-64
2021/08/25 09:46:13;;;;;;;5.93;5.43;;;25.50;80.00;;;;;;5050562;28;20463;-64
2021/08/25 09:48:42;;;;;;;5.50;5.10;;;25.10;78.30;;;;;;5050575;28;20507;-64
2021/08/25 09:51:11;;;;;;;5.87;5.47;;;24.90;77.90;;;;;;5051203;28;20462;-64
2021/08/25 09:53:38;;;;;;;6.00;5.50;;;24.50;77.50;;;;;;5050557;28;20459;-64
2021/08/25 09:56:24;;;;;;;5.80;5.40;;;24.50;78.20;;;;;;5050391;28;20472;-64
2021/08/25 09:58:53;;;;;;;6.37;5.77;;;24.20;75.60;;;;;;5049716;28;20906;-65
2021/08/25 10:01:20;;;;;;;5.40;5.00;;;24.00;77.40;;;;;;5050857;28;20550;-64
2021/08/25 10:03:47;;;;;;;5.77;5.27;;;24.10;78.20;;;;;;5050618;28;20469;-64
2021/08/25 10:06:16;;;;;;;5.30;5.00;;;24.20;77.50;;;;;;5050218;28;20439;-64
2021/08/25 10:08:44;;;;;;;5.23;4.83;;;24.00;77.90;;;;;;5049560;28;20858;-64
2021/08/25 10:11:12;;;;;;;5.33;4.93;;;23.80;78.20;;;;;;5050545;28;20526;-65
2021/08/25 10:13:40;;;;;;;6.03;5.53;;;24.00;78.80;;;;;;5049986;28;20461;-65
2021/08/25 10:16:12;;;;;;;5.97;5.47;;;23.90;77.50;;;;;;5050630;28;20530;-64
2021/08/25 10:18:40;;;;;;;5.63;5.23;;;23.00;79.70;;;;;;5049944;28;20566;-65
2021/08/25 10:21:42;;;;;;;5.43;4.87;;;23.10;80.00;;;;;;5049985;28;20459;-64
2021/08/25 10:24:09;;;;;;;4.90;4.50;;;22.70;81.40;;;;;;5030582;28;20507;-64
2021/08/25 10:27:06;;;;;;;5.40;5.00;;;22.70;82.50;;;;;;5030056;28;20535;-64
2021/08/25 10:29:34;;;;;;;5.93;5.43;;;21.90;83.30;;;;;;5022321;28;20472;-64
2021/08/25 10:32:15;;;;;;;6.27;5.77;;;21.90;81.10;;;;;;5039773;28;20530;-64
2021/08/25 10:34:43;;;;;;;6.07;5.20;;;22.10;82.10;;;;;;5049846;28;20525;-64
2021/08/25 10:37:28;;;;;;;5.03;4.53;;;22.10;82.90;;;;;;5049320;28;20452;-64
2021/08/25 10:40:00;;;;;;;5.97;5.27;;;22.10;79.80;;;;;;5050109;28;20455;-64
2021/08/25 10:42:52;;;;;;;5.57;5.03;;;22.00;80.10;;;;;;5049748;28;20464;-65
2021/08/25 10:45:50;;;;;;;5.27;4.77;;;21.60;80.10;;;;;;5049549;28;21019;-64
2021/08/25 10:48:37;;;;;;;5.60;5.20;;;21.80;81.80;;;;;;5049311;28;20511;-64
2021/08/25 10:51:04;;;;;;;5.63;5.23;;;22.30;81.20;;;;;;5049703;28;20472;-65
2021/08/25 10:53:40;;;;;;;6.53;4.97;;;22.40;82.50;;;;;;5050000;28;20464;-64
2021/08/25 10:56:12;;;;;;;5.53;4.80;;;22.80;78.90;;;;;;5049096;28;20554;-64
2021/08/25 10:58:44;;;;;;;5.43;5.03;;;22.50;80.60;;;;;;5049411;28;20558;-65
2021/08/25 11:01:21;;;;;;;6.63;6.03;;;22.20;81.10;;;;;;5050100;28;20501;-65
2021/08/25 11:03:50;;;;;;;5.83;5.33;;;22.40;81.80;;;;;;5048629;28;20559;-64
2021/08/25 11:06:41;;;;;;;6.27;5.67;;;22.70;81.50;;;;;;5049049;28;20473;-65
2021/08/25 11:09:20;;;;;;;6.17;5.57;;;22.20;81.00;;;;;;5048786;28;20496;-64
2021/08/25 11:11:49;;;;;;;5.93;5.43;;;21.60;81.00;;;;;;5049137;28;20465;-64
2021/08/25 11:14:39;;;;;;;6.07;5.47;;;21.30;84.20;;;;;;5048425;28;20484;-63
2021/08/25 11:17:11;;;;;;;6.07;5.60;;;21.60;83.60;;;;;;5038068;28;20467;-64
2021/08/25 11:19:42;;;;;;;6.20;5.60;;;21.20;82.50;;;;;;5048678;28;20884;-64
2021/08/25 11:22:15;;;;;;;6.50;6.00;;;20.60;83.80;;;;;;5051633;28;20515;-64
2021/08/25 11:24:44;;;;;;;6.43;5.83;;;20.30;84.70;;;;;;5068617;28;20455;-64
2021/08/25 11:27:23;;;;;;;6.23;5.73;;;20.00;86.30;;;;;;5068317;28;20462;-64
2021/08/25 11:30:21;;;;;;;6.30;5.70;;;20.40;85.20;;;;;;5028856;28;20500;-64
2021/08/25 11:32:50;;;;;;;6.23;5.33;;;20.60;84.90;;;;;;5029170;28;20465;-64
2021/08/25 11:35:26;;;;;;;6.10;5.60;;;20.80;85.30;;;;;;5028755;28;20973;-64
2021/08/25 11:37:54;;;;;;;5.73;5.27;;;20.80;83.60;;;;;;5028246;28;20967;-64
2021/08/25 11:40:24;;;;;;;5.90;5.40;;;21.00;83.30;;;;;;5042761;28;20838;-64
2021/08/25 11:42:52;;;;;;;5.30;4.80;;;21.10;81.30;;;;;;5048717;28;20479;-64
2021/08/25 11:45:21;;;;;;;5.60;5.10;;;21.00;83.20;;;;;;5048756;28;20467;-64
2021/08/25 11:47:50;;;;;;;7.40;5.67;;;20.70;84.10;;;;;;5048276;28;20456;-64
2021/08/25 11:50:18;;;;;;;7.03;6.43;;;20.60;83.00;;;;;;5048411;28;20554;-64
2021/08/25 11:52:47;;;;;;;9.13;5.23;;;20.70;84.70;;;;;;5049019;28;20470;-64
2021/08/25 11:55:14;;;;;;;6.10;5.50;;;20.90;87.30;;;;;;5048088;28;21083;-64
2021/08/25 11:57:43;;;;;;;6.20;5.17;;;21.10;84.40;;;;;;5048390;28;20547;-65
2021/08/25 12:00:11;;;;;;;5.57;5.07;;;21.00;82.80;;;;;;5048117;28;20452;-64
2021/08/25 12:02:54;;;;;;;6.07;5.57;;;21.10;82.50;;;;;;5048567;28;20964;-64
2021/08/25 12:05:25;;;;;;;5.63;5.13;;;21.30;82.40;;;;;;5047958;28;20460;-64
2021/08/25 12:08:00;;;;;;;5.90;5.30;;;21.40;79.70;;;;;;5047828;28;20495;-64
2021/08/25 12:10:27;;;;;;;5.57;5.17;;;21.50;82.80;;;;;;5028607;28;20465;-65
2021/08/25 12:12:56;;;;;;;5.87;5.37;;;21.70;81.10;;;;;;5030419;28;20910;-64
2021/08/25 12:15:38;;;;;;;7.40;6.00;;;21.80;79.40;;;;;;5048577;28;20517;-65
2021/08/25 12:18:05;;;;;;;5.03;4.63;;;21.80;80.00;;;;;;5048418;28;20499;-65
2021/08/25 12:20:35;;;;;;;5.90;5.30;;;21.80;81.10;;;;;;5049209;28;20458;-64
2021/08/25 12:23:08;;;;;;;5.60;5.10;;;21.60;79.30;;;;;;5048711;28;20492;-64
2021/08/25 12:25:41;;;;;;;5.77;5.37;;;21.30;80.30;;;;;;5048946;28;21191;-64
2021/08/25 12:28:10;;;;;;;6.03;5.37;;;21.30;80.70;;;;;;5049028;28;20524;-64
2021/08/25 12:30:38;;;;;;;5.90;5.40;;;21.20;83.00;;;;;;5048427;28;20474;-64
2021/08/25 12:33:06;;;;;;;5.67;5.27;;;20.90;81.00;;;;;;5049062;28;20467;-64
2021/08/25 12:35:34;;;;;;;6.53;5.77;;;20.60;81.30;;;;;;5049112;28;20581;-65
2021/08/25 12:38:01;;;;;;;6.13;5.40;;;20.40;83.00;;;;;;5048038;28;20460;-66
2021/08/25 12:40:30;;;;;;;5.97;5.47;;;20.50;86.70;;;;;;5048647;28;20462;-65
2021/08/25 12:42:58;;;;;;;5.83;5.37;;;20.50;84.30;;;;;;5048763;28;20460;-64